Share

Athol, KS

RAWS KIRWIN KS US (MTS746) Elev 1747 ft | 39.67 °N, 99.20 °W | Change Station

Current weather conditions updated 57 minutes ago

Clear
Clear
62 °F
Feels Like 62 °F
N
4
Wind Variable Wind from West
Gusts 6.0 mph
Sunrise 6:50 AM
Sunset 8:18 PM
Moon Waning Gibbous

Today is forecast to be Much Cooler than yesterday. Showers and thunderstorms late.

Pressure 29.94 in
Visibility 10.0 miles
Clouds Clear
Dew Point 52 °F
Humidity 69%
Rainfall 0.00 in
Snow Depth Not available.
UV 0 out of 16
Pollen 11.50 out of 12
Air Quality Not available.
Flu Activity No Activity
METAR KRSL 200653Z AUTO 19016KT 10SM CLR 17/09 A2998 RMK AO2 SLP137 T01720094 TSNO

More Conditions Fewer Conditions

Pressure 29.94 in
Visibility 10.0 miles
Clouds Clear
Dew Point 52 °F
Humidity 69%
Rainfall 0.00 in
Snow Depth Not available.
UV 0 out of 16
Pollen 11.50 out of 12
Air Quality Not available.
Flu Activity No Activity
METAR KRSL 200653Z AUTO 19016KT 10SM CLR 17/09 A2998 RMK AO2 SLP137 T01720094 TSNO

More Conditions Fewer Conditions

10-Day Weather Forecast

Almanac

Astronomy

Apr. 20, 2014 Rise Set
Actual Time 6:50 AM CDT 8:18 PM CDT
Civil Twilight 6:22 AM CDT 8:47 PM CDT
Nautical Twilight 5:48 AM CDT 9:21 PM CDT
Astronomical Twilight 5:12 AM CDT 9:57 PM CDT
Moon 12:59 AM CDT 11:13 AM CDT
Length of Visible Light 14h 24m
Length of Day
13h 28m
Tomorrow will be 2m 26s longer.
Waning Gibbous, 72% of the Moon is Illuminated
Today
Waning Gibbous
Apr 22
Last Quarter
Apr 29
New
May 6
First Quarter
May 14
Full

Today's Extremes

State Highs State Lows

Community

  • Sunny day at the coast-Cape Arago Lighthouse
    Sunny day at the coast-Cape Arago Lighthouse
  • Cherry Blossoms
    Cherry Blossoms
  • White-Crowned Sparrow
    White-Crowned Sparrow
  • New Day
    New Day
  • Happy Easter!
    Happy Easter!

WunderPhotos

Upload Photos

1,703,084 photos uploaded!

WunderBlogs® & News

Nearby

Snow Depth

Station Depth Elevation
No new snow has been reported.

Coastal Water Temperatures

Place Temperature
No Stations Reporting

Earthquake Activity

City Distance Mag. Time & Date
No recent earthquake activity has been reported nearby.
Minimum magnitude displayed is 2.5.

Nearby Weather Stations

Station Location Temp. Dew Point Humidity Wind Precip. Elev Updated Type
RAWS KIRWIN KS, Kirwin, KS 62 °F 52 °F 69% West  at  4 mph 0.00 in / hr 1747 ft 1:56 AM CDT MADIS
Near 14th and K, Franklin, NE 62.8 °F 48 °F 59% NNW  at  0.0 mph 0.00 in / hr 1850 ft 2:53 AM CDT Rapid Fire
NonFedAWOS PHILLIPSBURG , Phillipsburg, KS 55 °F 50 °F 82% West  at  3 mph 0.00 in / hr 1906 ft 2:40 AM CDT MADIS
MesoWest PHILLIPSBURG , Phillipsburg, KS 60 °F 51 °F 72% WNW  at  4 mph 0.00 in / hr 1985 ft 12:00 AM CDT MADIS

Show More Stations Show Fewer Stations

What do you think?

We're not finished. Please let us know what you like, what you don't like, and what you are still missing.